createdAt,value
2018-06-27T00:00:45.220Z,12.70
2018-06-27T00:03:13.348Z,12.70
2018-06-27T00:05:41.469Z,12.70
2018-06-27T00:08:10.503Z,12.70
2018-06-27T00:10:38.673Z,12.80
2018-06-27T00:13:06.938Z,12.90
2018-06-27T00:15:35.053Z,12.80
2018-06-27T00:18:03.163Z,12.80
2018-06-27T00:20:31.301Z,12.80
2018-06-27T00:22:59.429Z,12.80
2018-06-27T00:25:27.546Z,12.70
2018-06-27T00:27:55.663Z,12.70
2018-06-27T00:30:23.789Z,12.70
2018-06-27T00:32:51.890Z,12.70
2018-06-27T00:35:20.009Z,12.60
2018-06-27T00:37:48.127Z,12.60
2018-06-27T00:40:16.254Z,12.50
2018-06-27T00:42:44.374Z,12.60
2018-06-27T00:45:12.497Z,12.50
2018-06-27T00:47:40.601Z,12.40
2018-06-27T00:50:08.697Z,12.50
2018-06-27T00:52:36.801Z,12.50
2018-06-27T00:55:05.056Z,12.50
2018-06-27T01:00:01.045Z,12.50
2018-06-27T01:02:29.190Z,12.40
2018-06-27T01:04:57.325Z,12.30
2018-06-27T01:07:25.452Z,12.30
2018-06-27T01:09:53.579Z,12.30
2018-06-27T01:12:21.705Z,12.30
2018-06-27T01:14:49.824Z,12.30
2018-06-27T01:17:17.938Z,12.30
2018-06-27T01:19:46.085Z,12.20
2018-06-27T01:22:14.209Z,12.10
2018-06-27T01:24:42.394Z,12.10
2018-06-27T01:27:10.537Z,12.00
2018-06-27T01:29:39.794Z,11.90
2018-06-27T01:32:07.929Z,12.00
2018-06-27T01:34:36.075Z,11.90
2018-06-27T01:37:04.217Z,11.90
2018-06-27T01:39:32.341Z,11.80
2018-06-27T01:42:00.493Z,11.70
2018-06-27T01:44:28.617Z,11.70
2018-06-27T01:46:56.733Z,11.70
2018-06-27T01:49:24.899Z,11.80
2018-06-27T01:51:53.022Z,11.80
2018-06-27T01:54:21.157Z,11.80
2018-06-27T01:56:49.302Z,11.80
2018-06-27T01:59:17.438Z,11.80
2018-06-27T02:01:45.594Z,11.80
2018-06-27T02:04:13.717Z,11.80
2018-06-27T02:06:41.858Z,11.70
2018-06-27T02:09:10.737Z,11.60
2018-06-27T02:11:38.862Z,11.60
2018-06-27T02:14:06.985Z,11.50
2018-06-27T02:16:35.225Z,11.50
2018-06-27T02:19:03.341Z,11.40
2018-06-27T02:21:31.474Z,11.40
2018-06-27T02:23:59.597Z,11.40
2018-06-27T02:26:27.710Z,11.40
2018-06-27T02:28:55.833Z,11.40
2018-06-27T02:31:23.950Z,11.40
2018-06-27T02:33:52.041Z,11.40
2018-06-27T02:36:20.180Z,11.40
2018-06-27T02:38:48.271Z,12.10
2018-06-27T02:41:16.404Z,11.40
2018-06-27T02:43:44.577Z,11.30
2018-06-27T02:46:12.680Z,11.30
2018-06-27T02:48:40.818Z,11.40
2018-06-27T02:51:08.933Z,11.30
2018-06-27T02:53:38.488Z,11.40
2018-06-27T02:56:08.403Z,11.30
2018-06-27T02:58:36.528Z,11.20
2018-06-27T03:01:04.647Z,11.10
2018-06-27T03:03:32.868Z,11.10
2018-06-27T03:06:01.286Z,11.10
2018-06-27T03:08:29.393Z,11.10
2018-06-27T03:10:57.513Z,11.20
2018-06-27T03:13:25.614Z,11.20
2018-06-27T03:15:55.780Z,11.20
2018-06-27T03:18:23.940Z,11.20
2018-06-27T03:20:52.086Z,11.10
2018-06-27T03:23:20.225Z,11.00
2018-06-27T03:25:48.368Z,10.90
2018-06-27T03:28:16.526Z,11.00
2018-06-27T03:30:44.678Z,11.00
2018-06-27T03:33:12.845Z,10.90
2018-06-27T03:35:40.985Z,10.90
2018-06-27T03:38:09.133Z,10.80
2018-06-27T03:40:37.266Z,10.90
2018-06-27T03:43:05.418Z,10.90
2018-06-27T03:45:33.564Z,10.90
2018-06-27T03:48:01.738Z,10.90
2018-06-27T03:50:29.889Z,10.90
2018-06-27T03:52:58.049Z,11.00
2018-06-27T03:57:54.224Z,11.10
2018-06-27T04:00:22.381Z,11.10
2018-06-27T04:02:50.537Z,11.10
2018-06-27T04:05:18.676Z,11.10
2018-06-27T04:07:46.825Z,11.10
2018-06-27T04:10:14.963Z,11.10
2018-06-27T04:12:43.132Z,11.20
2018-06-27T04:15:12.223Z,11.30
2018-06-27T04:17:40.333Z,11.40
2018-06-27T04:20:08.458Z,11.50
2018-06-27T04:22:36.596Z,11.60
2018-06-27T04:25:04.814Z,11.80
2018-06-27T04:30:02.367Z,11.80
2018-06-27T04:32:30.481Z,11.70
2018-06-27T04:34:59.734Z,11.70
2018-06-27T04:37:27.885Z,11.80
2018-06-27T04:39:56.380Z,11.80
2018-06-27T04:42:24.657Z,11.80
2018-06-27T04:44:52.781Z,11.90
2018-06-27T04:47:20.893Z,12.00
2018-06-27T04:49:48.993Z,12.20
2018-06-27T04:52:17.093Z,12.40
2018-06-27T04:54:45.216Z,12.50
2018-06-27T04:57:13.304Z,12.50
2018-06-27T04:59:41.422Z,12.60
2018-06-27T05:02:09.522Z,12.80
2018-06-27T05:04:37.641Z,12.90
2018-06-27T05:07:05.750Z,12.90
2018-06-27T05:09:33.847Z,13.00
2018-06-27T05:12:01.959Z,13.10
2018-06-27T05:14:30.106Z,13.10
2018-06-27T05:16:58.206Z,13.00
2018-06-27T05:19:26.395Z,13.10
2018-06-27T05:21:54.693Z,13.20
2018-06-27T05:24:22.737Z,13.40
2018-06-27T05:26:50.869Z,13.50
2018-06-27T05:29:19.013Z,13.70
2018-06-27T05:31:47.152Z,13.80
2018-06-27T05:34:15.277Z,13.80
2018-06-27T05:36:43.447Z,14.00
2018-06-27T05:39:12.137Z,14.40
2018-06-27T05:41:40.272Z,15.40
2018-06-27T05:44:08.454Z,15.70
2018-06-27T05:46:36.645Z,15.90
2018-06-27T05:49:04.835Z,16.10
2018-06-27T05:51:33.087Z,16.30
2018-06-27T05:54:01.137Z,16.80
2018-06-27T05:56:29.314Z,16.80
2018-06-27T05:58:57.522Z,16.70
2018-06-27T06:01:25.670Z,17.10
2018-06-27T06:03:53.814Z,17.40
2018-06-27T06:06:21.949Z,17.10
2018-06-27T06:08:50.074Z,16.90
2018-06-27T06:11:18.284Z,18.20
2018-06-27T06:13:46.345Z,18.60
2018-06-27T06:16:14.494Z,19.10
2018-06-27T06:18:42.668Z,19.20
2018-06-27T06:21:10.850Z,18.70
2018-06-27T06:23:38.981Z,18.00
2018-06-27T06:26:07.273Z,17.70
2018-06-27T06:28:35.506Z,16.90
2018-06-27T06:31:03.648Z,17.60
2018-06-27T06:33:31.791Z,17.90
2018-06-27T06:35:59.929Z,18.80
2018-06-27T06:38:28.066Z,19.90
2018-06-27T06:40:56.236Z,20.50
2018-06-27T06:43:24.718Z,22.40
2018-06-27T06:45:52.883Z,21.50
2018-06-27T06:48:21.019Z,21.80
2018-06-27T06:50:49.164Z,21.20
2018-06-27T06:53:17.296Z,19.80
2018-06-27T06:55:45.482Z,22.70
2018-06-27T06:58:14.100Z,22.10
2018-06-27T07:00:42.264Z,21.90
2018-06-27T07:03:10.405Z,23.20
2018-06-27T07:05:38.553Z,23.00
2018-06-27T07:08:06.690Z,24.50
2018-06-27T07:10:34.821Z,23.80
2018-06-27T07:13:02.950Z,24.10
2018-06-27T07:15:31.100Z,23.90
2018-06-27T07:17:59.241Z,23.80
2018-06-27T07:20:27.378Z,24.60
2018-06-27T07:22:55.527Z,24.50
2018-06-27T07:25:23.669Z,24.90
2018-06-27T07:27:51.823Z,25.10
2018-06-27T07:30:19.975Z,24.30
2018-06-27T07:32:48.248Z,25.00
2018-06-27T07:35:16.354Z,25.10
2018-06-27T07:37:44.516Z,25.80
2018-06-27T07:40:12.713Z,25.10
2018-06-27T07:42:40.865Z,25.10
2018-06-27T07:45:09.039Z,23.30
2018-06-27T07:47:37.209Z,25.00
2018-06-27T07:50:05.670Z,25.70
2018-06-27T07:52:33.862Z,24.90
2018-06-27T07:55:02.013Z,25.10
2018-06-27T07:59:58.074Z,25.40
2018-06-27T08:04:54.205Z,24.70
2018-06-27T08:07:22.341Z,25.50
2018-06-27T08:09:50.478Z,25.90
2018-06-27T08:12:18.736Z,26.10
2018-06-27T08:14:46.826Z,25.20
2018-06-27T08:17:15.002Z,25.10
2018-06-27T08:19:43.154Z,24.50
2018-06-27T08:22:11.339Z,24.60
2018-06-27T08:24:39.476Z,24.60
2018-06-27T08:27:07.754Z,24.70
2018-06-27T08:29:35.951Z,25.50
2018-06-27T08:32:04.105Z,25.10
2018-06-27T08:34:32.247Z,24.80
2018-06-27T08:37:00.084Z,25.70
2018-06-27T08:39:28.245Z,26.30
2018-06-27T08:41:56.407Z,26.40
2018-06-27T08:44:24.648Z,25.60
2018-06-27T08:46:52.778Z,26.80
2018-06-27T08:49:20.973Z,26.80
2018-06-27T08:51:49.104Z,27.40
2018-06-27T08:54:17.375Z,27.70
2018-06-27T08:56:45.548Z,27.60
2018-06-27T08:59:15.754Z,26.20
2018-06-27T09:01:43.940Z,25.80
2018-06-27T09:04:12.111Z,25.00
2018-06-27T09:06:40.280Z,25.70
2018-06-27T09:09:09.705Z,26.00
2018-06-27T09:11:37.877Z,26.70
2018-06-27T09:14:06.173Z,26.00
2018-06-27T09:16:34.489Z,26.70
2018-06-27T09:19:02.616Z,26.30
2018-06-27T09:21:30.795Z,26.90
2018-06-27T09:23:58.877Z,26.60
2018-06-27T09:26:27.001Z,25.80
2018-06-27T09:28:55.102Z,25.20
2018-06-27T09:31:23.246Z,26.60
2018-06-27T09:33:51.371Z,25.90
2018-06-27T09:36:19.526Z,25.20
2018-06-27T09:38:47.633Z,24.90
2018-06-27T09:43:43.626Z,25.70
2018-06-27T09:46:11.773Z,26.60
2018-06-27T09:48:39.889Z,26.50
2018-06-27T09:51:08.493Z,26.10
2018-06-27T09:53:36.606Z,26.50
2018-06-27T09:56:04.749Z,26.90
2018-06-27T09:58:32.825Z,26.30
2018-06-27T10:01:00.941Z,26.00
2018-06-27T10:03:29.041Z,25.10
2018-06-27T10:05:57.140Z,26.00
2018-06-27T10:08:25.240Z,26.40
2018-06-27T10:10:53.351Z,26.90
2018-06-27T10:13:21.454Z,27.10
2018-06-27T10:15:49.627Z,25.60
2018-06-27T10:18:17.769Z,25.20
2018-06-27T10:20:45.918Z,25.20
2018-06-27T10:23:14.062Z,25.10
2018-06-27T10:25:42.186Z,24.60
2018-06-27T10:28:10.321Z,24.20
2018-06-27T10:30:38.922Z,24.40
2018-06-27T10:33:07.077Z,25.80
2018-06-27T10:35:35.230Z,26.60
2018-06-27T10:38:03.345Z,27.00
2018-06-27T10:40:31.514Z,26.30
2018-06-27T10:42:59.662Z,24.40
2018-06-27T10:45:27.811Z,24.40
2018-06-27T10:47:55.960Z,24.30
2018-06-27T10:50:24.098Z,24.30
2018-06-27T10:52:52.400Z,27.40
2018-06-27T10:55:21.187Z,27.40
2018-06-27T10:57:49.493Z,26.40
2018-06-27T11:00:17.630Z,28.00
2018-06-27T11:02:45.786Z,27.60
2018-06-27T11:05:13.969Z,26.20
2018-06-27T11:07:42.207Z,27.30
2018-06-27T11:10:10.757Z,28.10
2018-06-27T11:12:38.987Z,28.20
2018-06-27T11:15:07.584Z,26.80
2018-06-27T11:17:35.742Z,25.60
2018-06-27T11:20:05.455Z,25.70
2018-06-27T11:22:33.938Z,25.30
2018-06-27T11:25:02.348Z,24.80
2018-06-27T11:27:31.245Z,25.90
2018-06-27T11:29:59.872Z,26.00
2018-06-27T11:32:28.930Z,27.00
2018-06-27T11:34:57.519Z,27.00
2018-06-27T11:37:26.412Z,28.00
2018-06-27T11:39:54.858Z,27.70
2018-06-27T11:42:23.051Z,28.40
2018-06-27T11:47:19.835Z,29.00
2018-06-27T11:49:48.297Z,28.90
2018-06-27T11:52:18.038Z,29.40
2018-06-27T11:54:50.607Z,29.10
2018-06-27T11:57:18.862Z,29.10
2018-06-27T11:59:47.275Z,29.30
2018-06-27T12:02:15.627Z,28.50
2018-06-27T12:04:43.782Z,28.40
2018-06-27T12:09:41.751Z,29.40
2018-06-27T12:12:09.883Z,28.80
2018-06-27T12:14:37.984Z,28.80
2018-06-27T12:17:06.078Z,28.70
2018-06-27T12:19:34.785Z,28.50
2018-06-27T12:22:03.818Z,28.30
2018-06-27T12:24:32.220Z,28.60
2018-06-27T12:27:00.469Z,28.80
2018-06-27T12:29:28.950Z,29.50
2018-06-27T12:31:57.531Z,29.10
2018-06-27T12:34:25.941Z,27.20
2018-06-27T12:36:54.792Z,27.30
2018-06-27T12:39:23.234Z,26.20
2018-06-27T12:41:51.370Z,27.10
2018-06-27T12:44:19.603Z,28.30
2018-06-27T12:46:47.715Z,28.00
2018-06-27T12:49:17.120Z,27.60
2018-06-27T12:51:45.647Z,26.50
2018-06-27T12:54:13.994Z,26.40
2018-06-27T12:56:42.266Z,26.00
2018-06-27T12:59:10.586Z,26.90
2018-06-27T13:01:38.697Z,27.90
2018-06-27T13:04:06.821Z,28.10
2018-06-27T13:06:35.239Z,27.90
2018-06-27T13:09:04.450Z,28.30
2018-06-27T13:11:32.497Z,28.00
2018-06-27T13:14:00.606Z,27.60
2018-06-27T13:16:28.776Z,27.40
2018-06-27T13:18:57.020Z,27.70
2018-06-27T13:21:25.261Z,27.20
2018-06-27T13:23:53.418Z,27.70
2018-06-27T13:28:50.038Z,28.30
2018-06-27T13:31:18.183Z,27.90
2018-06-27T13:33:46.362Z,28.80
2018-06-27T13:36:14.539Z,28.50
2018-06-27T13:38:42.738Z,28.00
2018-06-27T13:41:11.998Z,27.20
2018-06-27T13:43:40.148Z,27.50
2018-06-27T13:46:08.334Z,27.90
2018-06-27T13:48:36.485Z,27.40
2018-06-27T13:51:04.643Z,27.40
2018-06-27T13:53:32.784Z,27.30
2018-06-27T13:56:00.931Z,27.80
2018-06-27T13:58:29.061Z,28.30
2018-06-27T14:03:25.140Z,27.20
2018-06-27T14:05:53.264Z,27.00
2018-06-27T14:10:50.626Z,26.40
2018-06-27T14:13:18.949Z,26.10
2018-06-27T14:15:47.103Z,25.80
2018-06-27T14:18:15.241Z,25.70
2018-06-27T14:20:43.389Z,25.50
2018-06-27T14:23:11.538Z,25.10
2018-06-27T14:25:39.690Z,25.00
2018-06-27T14:28:07.825Z,24.80
2018-06-27T14:30:37.489Z,25.60
2018-06-27T14:33:05.682Z,26.00
2018-06-27T14:35:33.831Z,26.40
2018-06-27T14:38:01.993Z,26.30
2018-06-27T14:40:30.137Z,26.80
2018-06-27T14:42:58.295Z,26.10
2018-06-27T14:45:26.460Z,26.40
2018-06-27T14:47:54.640Z,25.30
2018-06-27T14:50:23.301Z,25.30
2018-06-27T14:52:51.461Z,25.30
2018-06-27T14:55:19.650Z,25.40
2018-06-27T14:57:47.820Z,25.60
2018-06-27T15:00:15.994Z,26.00
2018-06-27T15:02:44.208Z,26.20
2018-06-27T15:05:12.350Z,26.10
2018-06-27T15:07:40.503Z,25.70
2018-06-27T15:10:08.657Z,25.90
2018-06-27T15:12:36.792Z,26.20
2018-06-27T15:15:05.615Z,26.20
2018-06-27T15:17:33.754Z,25.90
2018-06-27T15:20:01.915Z,26.00
2018-06-27T15:22:30.082Z,26.30
2018-06-27T15:24:58.221Z,26.20
2018-06-27T15:27:26.357Z,25.60
2018-06-27T15:29:54.650Z,25.10
2018-06-27T15:32:22.787Z,24.80
2018-06-27T15:34:51.012Z,24.80
2018-06-27T15:37:19.151Z,25.20
2018-06-27T15:42:15.259Z,26.00
2018-06-27T15:44:43.445Z,25.80
2018-06-27T15:47:11.594Z,25.90
2018-06-27T15:49:39.747Z,26.00
2018-06-27T15:52:07.878Z,25.60
2018-06-27T15:54:36.839Z,25.60
2018-06-27T15:57:05.098Z,25.90
2018-06-27T15:59:33.242Z,25.90
2018-06-27T16:02:01.386Z,26.00
2018-06-27T16:04:29.539Z,25.70
2018-06-27T16:06:57.695Z,25.80
2018-06-27T16:09:25.888Z,25.70
2018-06-27T16:11:54.110Z,25.70
2018-06-27T16:14:22.205Z,25.60
2018-06-27T16:16:50.427Z,25.40
2018-06-27T16:19:18.495Z,25.50
2018-06-27T16:21:46.629Z,25.40
2018-06-27T16:24:14.739Z,25.40
2018-06-27T16:26:42.873Z,25.40
2018-06-27T16:29:10.974Z,25.40
2018-06-27T16:31:39.109Z,25.60
2018-06-27T16:34:07.276Z,25.50
2018-06-27T16:36:35.370Z,25.10
2018-06-27T16:41:31.747Z,24.80
2018-06-27T16:43:59.884Z,24.80
2018-06-27T16:46:28.132Z,24.80
2018-06-27T16:48:56.163Z,24.70
2018-06-27T16:51:24.393Z,24.80
2018-06-27T16:53:52.580Z,24.60
2018-06-27T16:56:20.581Z,24.60
2018-06-27T16:58:48.732Z,24.70
2018-06-27T17:01:17.007Z,24.90
2018-06-27T17:03:44.992Z,25.00
2018-06-27T17:06:13.184Z,25.00
2018-06-27T17:08:41.411Z,25.00
2018-06-27T17:11:09.557Z,25.10
2018-06-27T17:13:37.686Z,25.10
2018-06-27T17:16:06.065Z,24.90
2018-06-27T17:18:34.234Z,24.90
2018-06-27T17:21:02.654Z,24.80
2018-06-27T17:23:30.794Z,24.70
2018-06-27T17:25:58.941Z,24.80
2018-06-27T17:28:27.100Z,24.70
2018-06-27T17:30:56.108Z,24.60
2018-06-27T17:33:24.247Z,24.60
2018-06-27T17:35:52.374Z,24.40
2018-06-27T17:38:20.527Z,24.30
2018-06-27T17:40:48.690Z,24.30
2018-06-27T17:43:16.819Z,24.00
2018-06-27T17:45:44.937Z,23.90
2018-06-27T17:48:13.085Z,23.90
2018-06-27T17:50:41.209Z,23.80
2018-06-27T17:53:09.434Z,24.00
2018-06-27T17:55:37.757Z,24.00
2018-06-27T17:58:05.911Z,24.00
2018-06-27T18:00:34.270Z,24.00
2018-06-27T18:03:02.481Z,23.90
2018-06-27T18:05:30.657Z,23.80
2018-06-27T18:07:58.857Z,23.90
2018-06-27T18:10:27.947Z,23.80
2018-06-27T18:12:56.110Z,23.70
2018-06-27T18:15:24.256Z,23.70
2018-06-27T18:17:52.400Z,23.60
2018-06-27T18:20:20.563Z,23.50
2018-06-27T18:22:48.947Z,23.40
2018-06-27T18:25:18.185Z,23.40
2018-06-27T18:27:46.296Z,23.40
2018-06-27T18:30:14.457Z,23.30
2018-06-27T18:32:42.974Z,23.20
2018-06-27T18:35:11.202Z,23.20
2018-06-27T18:37:39.369Z,23.20
2018-06-27T18:40:08.301Z,23.10
2018-06-27T18:42:36.414Z,23.00
2018-06-27T18:45:04.970Z,22.90
2018-06-27T18:47:33.101Z,22.80
2018-06-27T18:50:01.261Z,22.80
2018-06-27T18:52:29.479Z,22.60
2018-06-27T18:54:57.629Z,22.60
2018-06-27T18:57:25.777Z,22.50
2018-06-27T18:59:53.940Z,22.40
2018-06-27T19:02:22.075Z,22.40
2018-06-27T19:04:50.246Z,22.30
2018-06-27T19:07:18.481Z,22.20
2018-06-27T19:12:17.863Z,22.10
2018-06-27T19:14:46.051Z,22.00
2018-06-27T19:17:14.181Z,22.00
2018-06-27T19:19:42.486Z,21.90
2018-06-27T19:22:10.737Z,21.90
2018-06-27T19:24:38.937Z,21.80
2018-06-27T19:27:07.105Z,21.80
2018-06-27T19:29:35.259Z,21.70
2018-06-27T19:32:03.422Z,21.60
2018-06-27T19:34:31.582Z,21.60
2018-06-27T19:36:59.813Z,21.60
2018-06-27T19:39:37.464Z,21.50
2018-06-27T19:41:56.169Z,21.40
2018-06-27T19:44:24.826Z,21.40
2018-06-27T19:46:53.004Z,21.40
2018-06-27T19:49:21.177Z,21.30
2018-06-27T19:51:49.322Z,21.30
2018-06-27T19:54:17.454Z,21.20
2018-06-27T19:56:45.653Z,21.20
2018-06-27T19:59:13.941Z,21.10
2018-06-27T20:01:42.174Z,21.10
2018-06-27T20:04:11.171Z,21.00
2018-06-27T20:06:39.343Z,21.00
2018-06-27T20:09:08.316Z,20.90
2018-06-27T20:11:36.598Z,20.80
2018-06-27T20:14:04.856Z,20.70
2018-06-27T20:16:33.559Z,20.70
2018-06-27T20:19:01.737Z,20.60
2018-06-27T20:21:29.891Z,20.60
2018-06-27T20:23:58.026Z,20.50
2018-06-27T20:26:26.187Z,20.40
2018-06-27T20:28:54.361Z,20.40
2018-06-27T20:31:22.489Z,20.20
2018-06-27T20:33:50.625Z,20.20
2018-06-27T20:36:18.753Z,20.10
2018-06-27T20:38:46.898Z,20.10
2018-06-27T20:41:15.034Z,20.10
2018-06-27T20:43:43.170Z,20.00
2018-06-27T20:46:11.311Z,20.00
2018-06-27T20:48:39.489Z,19.80
2018-06-27T20:51:07.641Z,19.80
2018-06-27T20:53:35.780Z,19.80
2018-06-27T20:56:04.017Z,19.80
2018-06-27T20:58:32.162Z,19.80
2018-06-27T21:01:00.418Z,19.70
2018-06-27T21:03:28.540Z,19.70
2018-06-27T21:05:56.690Z,19.60
2018-06-27T21:08:24.835Z,19.50
2018-06-27T21:10:53.094Z,19.40
2018-06-27T21:13:21.248Z,19.40
2018-06-27T21:15:49.393Z,19.40
2018-06-27T21:18:17.539Z,19.30
2018-06-27T21:20:45.678Z,19.30
2018-06-27T21:23:13.859Z,19.20
2018-06-27T21:25:42.004Z,19.20
2018-06-27T21:28:10.146Z,19.20
2018-06-27T21:30:38.290Z,19.10
2018-06-27T21:33:06.473Z,19.00
2018-06-27T21:35:34.646Z,19.00
2018-06-27T21:38:02.726Z,18.90
2018-06-27T21:40:30.842Z,18.90
2018-06-27T21:42:58.962Z,18.80
2018-06-27T21:45:27.094Z,18.80
2018-06-27T21:47:55.221Z,18.70
2018-06-27T21:50:23.355Z,18.60
2018-06-27T21:52:51.541Z,18.60
2018-06-27T21:55:19.674Z,18.60
2018-06-27T21:57:47.808Z,18.50
2018-06-27T22:00:35.115Z,18.30
2018-06-27T22:03:03.837Z,18.30
2018-06-27T22:05:31.971Z,18.20
2018-06-27T22:08:00.125Z,18.20
2018-06-27T22:10:28.273Z,18.20
2018-06-27T22:12:56.418Z,18.20
2018-06-27T22:15:24.559Z,18.10
2018-06-27T22:17:52.712Z,18.20
2018-06-27T22:20:20.834Z,18.20
2018-06-27T22:22:48.978Z,18.30
2018-06-27T22:25:17.087Z,18.30
2018-06-27T22:27:45.306Z,18.30
2018-06-27T22:30:13.434Z,18.20
2018-06-27T22:32:41.573Z,18.20
2018-06-27T22:35:09.734Z,18.20
2018-06-27T22:37:37.830Z,18.10
2018-06-27T22:40:06.005Z,18.00
2018-06-27T22:42:43.710Z,17.90
2018-06-27T22:45:11.855Z,17.80
2018-06-27T22:47:40.045Z,17.50
2018-06-27T22:50:08.198Z,17.30
2018-06-27T22:52:36.315Z,17.10
2018-06-27T22:55:04.475Z,17.00
2018-06-27T22:57:32.626Z,17.00
2018-06-27T23:00:00.746Z,17.10
2018-06-27T23:02:28.892Z,17.00
2018-06-27T23:04:57.036Z,17.10
2018-06-27T23:07:25.166Z,17.10
2018-06-27T23:09:53.310Z,17.10
2018-06-27T23:12:21.450Z,17.00
2018-06-27T23:14:49.569Z,17.00
2018-06-27T23:17:17.724Z,16.80
2018-06-27T23:19:45.854Z,16.70
2018-06-27T23:22:51.381Z,16.50
2018-06-27T23:25:19.544Z,16.30
2018-06-27T23:27:47.686Z,16.20
2018-06-27T23:30:15.829Z,16.20
2018-06-27T23:32:43.945Z,16.20
2018-06-27T23:35:12.106Z,16.10
2018-06-27T23:37:40.699Z,16.10
2018-06-27T23:40:08.989Z,16.10
2018-06-27T23:42:37.135Z,16.00
2018-06-27T23:45:06.205Z,15.80
2018-06-27T23:47:34.325Z,15.70
2018-06-27T23:50:02.659Z,15.60
2018-06-27T23:52:30.832Z,15.40
2018-06-27T23:54:58.949Z,15.00
2018-06-27T23:57:27.106Z,14.80
2018-06-27T23:59:55.250Z,14.70
